sensor_id;sensor_type;location;lat;lon;timestamp;temperature;humidity
8565;DHT22;4320;51.498;6.556;2023-08-06T00:02:23;16.90;99.90
8565;DHT22;4320;51.498;6.556;2023-08-06T00:04:48;16.90;99.90
8565;DHT22;4320;51.498;6.556;2023-08-06T00:07:14;17.00;99.90
8565;DHT22;4320;51.498;6.556;2023-08-06T00:09:40;17.20;99.90
8565;DHT22;4320;51.498;6.556;2023-08-06T00:12:05;17.00;99.90
8565;DHT22;4320;51.498;6.556;2023-08-06T00:14:31;17.00;99.90
8565;DHT22;4320;51.498;6.556;2023-08-06T00:16:57;16.80;99.90
8565;DHT22;4320;51.498;6.556;2023-08-06T00:19:22;16.90;99.90
8565;DHT22;4320;51.498;6.556;2023-08-06T00:21:48;16.90;99.90
8565;DHT22;4320;51.498;6.556;2023-08-06T00:24:13;16.90;99.90
8565;DHT22;4320;51.498;6.556;2023-08-06T00:26:39;16.90;99.90
8565;DHT22;4320;51.498;6.556;2023-08-06T00:29:04;16.90;99.90
8565;DHT22;4320;51.498;6.556;2023-08-06T00:31:30;17.00;99.90
8565;DHT22;4320;51.498;6.556;2023-08-06T00:33:56;17.00;99.90
8565;DHT22;4320;51.498;6.556;2023-08-06T00:36:21;17.00;99.90
8565;DHT22;4320;51.498;6.556;2023-08-06T00:38:47;17.10;99.90
8565;DHT22;4320;51.498;6.556;2023-08-06T00:41:12;17.10;99.90
8565;DHT22;4320;51.498;6.556;2023-08-06T00:43:38;17.10;99.90
8565;DHT22;4320;51.498;6.556;2023-08-06T00:46:03;17.00;99.90
8565;DHT22;4320;51.498;6.556;2023-08-06T00:48:29;17.10;99.90
8565;DHT22;4320;51.498;6.556;2023-08-06T00:50:55;17.10;99.90
8565;DHT22;4320;51.498;6.556;2023-08-06T00:53:21;17.10;99.90
8565;DHT22;4320;51.498;6.556;2023-08-06T00:55:47;17.10;99.90
8565;DHT22;4320;51.498;6.556;2023-08-06T00:58:14;17.00;99.90
8565;DHT22;4320;51.498;6.556;2023-08-06T01:00:41;17.00;99.90
8565;DHT22;4320;51.498;6.556;2023-08-06T01:03:07;17.00;99.90
8565;DHT22;4320;51.498;6.556;2023-08-06T01:05:32;17.00;99.90
8565;DHT22;4320;51.498;6.556;2023-08-06T01:13:39;16.90;99.90
8565;DHT22;4320;51.498;6.556;2023-08-06T01:16:06;17.00;99.90
8565;DHT22;4320;51.498;6.556;2023-08-06T01:18:32;17.00;99.90
8565;DHT22;4320;51.498;6.556;2023-08-06T01:20:58;17.00;99.90
8565;DHT22;4320;51.498;6.556;2023-08-06T01:23:24;17.00;99.90
8565;DHT22;4320;51.498;6.556;2023-08-06T01:28:41;17.00;99.90
8565;DHT22;4320;51.498;6.556;2023-08-06T01:31:37;16.90;99.90
8565;DHT22;4320;51.498;6.556;2023-08-06T01:34:01;16.80;99.90
8565;DHT22;4320;51.498;6.556;2023-08-06T01:36:28;16.90;99.90
8565;DHT22;4320;51.498;6.556;2023-08-06T01:38:54;17.00;99.90
8565;DHT22;4320;51.498;6.556;2023-08-06T01:41:20;17.00;99.90
8565;DHT22;4320;51.498;6.556;2023-08-06T01:43:45;17.00;99.90
8565;DHT22;4320;51.498;6.556;2023-08-06T01:46:11;16.90;99.90
8565;DHT22;4320;51.498;6.556;2023-08-06T01:48:37;17.00;99.90
8565;DHT22;4320;51.498;6.556;2023-08-06T01:51:06;17.00;99.90
8565;DHT22;4320;51.498;6.556;2023-08-06T01:53:32;17.00;99.90
8565;DHT22;4320;51.498;6.556;2023-08-06T01:55:58;17.10;99.90
8565;DHT22;4320;51.498;6.556;2023-08-06T01:58:23;17.00;99.90
8565;DHT22;4320;51.498;6.556;2023-08-06T02:00:49;16.80;99.90
8565;DHT22;4320;51.498;6.556;2023-08-06T02:03:15;16.70;99.90
8565;DHT22;4320;51.498;6.556;2023-08-06T02:05:40;16.60;99.90
8565;DHT22;4320;51.498;6.556;2023-08-06T02:08:06;16.60;99.90
8565;DHT22;4320;51.498;6.556;2023-08-06T02:10:32;16.70;99.90
8565;DHT22;4320;51.498;6.556;2023-08-06T02:12:57;16.70;99.90
8565;DHT22;4320;51.498;6.556;2023-08-06T02:15:23;16.80;99.90
8565;DHT22;4320;51.498;6.556;2023-08-06T02:17:48;16.90;99.90
8565;DHT22;4320;51.498;6.556;2023-08-06T02:20:14;16.90;99.90
8565;DHT22;4320;51.498;6.556;2023-08-06T02:22:40;16.90;99.90
8565;DHT22;4320;51.498;6.556;2023-08-06T02:25:05;17.00;99.90
8565;DHT22;4320;51.498;6.556;2023-08-06T02:27:31;17.10;99.90
8565;DHT22;4320;51.498;6.556;2023-08-06T02:29:57;17.00;99.90
8565;DHT22;4320;51.498;6.556;2023-08-06T02:32:22;16.90;99.90
8565;DHT22;4320;51.498;6.556;2023-08-06T02:34:48;16.80;99.90
8565;DHT22;4320;51.498;6.556;2023-08-06T02:37:13;16.80;99.90
8565;DHT22;4320;51.498;6.556;2023-08-06T02:39:39;16.80;99.90
8565;DHT22;4320;51.498;6.556;2023-08-06T02:42:08;16.80;99.90
8565;DHT22;4320;51.498;6.556;2023-08-06T02:44:34;16.90;99.90
8565;DHT22;4320;51.498;6.556;2023-08-06T02:47:00;17.00;99.90
8565;DHT22;4320;51.498;6.556;2023-08-06T02:49:26;17.10;99.90
8565;DHT22;4320;51.498;6.556;2023-08-06T02:51:52;17.10;99.90
8565;DHT22;4320;51.498;6.556;2023-08-06T02:54:20;17.00;99.90
8565;DHT22;4320;51.498;6.556;2023-08-06T02:56:46;17.00;99.90
8565;DHT22;4320;51.498;6.556;2023-08-06T02:59:12;16.80;99.90
8565;DHT22;4320;51.498;6.556;2023-08-06T03:01:38;16.80;99.90
8565;DHT22;4320;51.498;6.556;2023-08-06T03:04:04;16.80;99.90
8565;DHT22;4320;51.498;6.556;2023-08-06T03:06:30;16.70;99.90
8565;DHT22;4320;51.498;6.556;2023-08-06T03:08:55;16.70;99.90
8565;DHT22;4320;51.498;6.556;2023-08-06T03:11:21;16.70;99.90
8565;DHT22;4320;51.498;6.556;2023-08-06T03:13:47;16.80;99.90
8565;DHT22;4320;51.498;6.556;2023-08-06T03:16:13;16.90;99.90
8565;DHT22;4320;51.498;6.556;2023-08-06T03:18:39;17.10;99.90
8565;DHT22;4320;51.498;6.556;2023-08-06T03:21:05;17.10;99.90
8565;DHT22;4320;51.498;6.556;2023-08-06T03:23:30;17.20;99.90
8565;DHT22;4320;51.498;6.556;2023-08-06T03:25:56;17.10;99.90
8565;DHT22;4320;51.498;6.556;2023-08-06T03:28:21;17.10;99.90
8565;DHT22;4320;51.498;6.556;2023-08-06T03:30:47;17.10;99.90
8565;DHT22;4320;51.498;6.556;2023-08-06T03:33:13;17.10;99.90
8565;DHT22;4320;51.498;6.556;2023-08-06T03:35:39;17.00;99.90
8565;DHT22;4320;51.498;6.556;2023-08-06T03:38:04;17.00;99.90
8565;DHT22;4320;51.498;6.556;2023-08-06T03:40:30;16.90;99.90
8565;DHT22;4320;51.498;6.556;2023-08-06T03:42:56;16.80;99.90
8565;DHT22;4320;51.498;6.556;2023-08-06T03:45:21;16.80;99.90
8565;DHT22;4320;51.498;6.556;2023-08-06T03:47:47;16.80;99.90
8565;DHT22;4320;51.498;6.556;2023-08-06T03:50:13;16.80;99.90
8565;DHT22;4320;51.498;6.556;2023-08-06T03:52:38;16.80;99.90
8565;DHT22;4320;51.498;6.556;2023-08-06T03:55:04;16.80;99.90
8565;DHT22;4320;51.498;6.556;2023-08-06T03:57:29;16.90;99.90
8565;DHT22;4320;51.498;6.556;2023-08-06T03:59:55;17.10;99.90
8565;DHT22;4320;51.498;6.556;2023-08-06T04:02:21;17.10;99.90
8565;DHT22;4320;51.498;6.556;2023-08-06T04:04:46;17.10;99.90
8565;DHT22;4320;51.498;6.556;2023-08-06T04:07:12;17.00;99.90
8565;DHT22;4320;51.498;6.556;2023-08-06T04:10:01;17.10;99.90
8565;DHT22;4320;51.498;6.556;2023-08-06T04:12:27;17.00;99.90
8565;DHT22;4320;51.498;6.556;2023-08-06T04:14:53;17.00;99.90
8565;DHT22;4320;51.498;6.556;2023-08-06T04:17:20;17.20;99.90
8565;DHT22;4320;51.498;6.556;2023-08-06T04:19:50;17.30;99.90
8565;DHT22;4320;51.498;6.556;2023-08-06T04:22:16;17.20;99.90
8565;DHT22;4320;51.498;6.556;2023-08-06T04:24:42;17.20;99.90
8565;DHT22;4320;51.498;6.556;2023-08-06T04:27:12;17.10;99.90
8565;DHT22;4320;51.498;6.556;2023-08-06T04:29:38;17.10;99.90
8565;DHT22;4320;51.498;6.556;2023-08-06T04:32:08;17.10;99.90
8565;DHT22;4320;51.498;6.556;2023-08-06T04:34:35;17.00;99.90
8565;DHT22;4320;51.498;6.556;2023-08-06T04:37:01;16.90;99.90
8565;DHT22;4320;51.498;6.556;2023-08-06T04:39:27;17.00;99.90
8565;DHT22;4320;51.498;6.556;2023-08-06T04:41:52;17.00;99.90
8565;DHT22;4320;51.498;6.556;2023-08-06T04:44:18;17.00;99.90
8565;DHT22;4320;51.498;6.556;2023-08-06T04:46:44;17.00;99.90
8565;DHT22;4320;51.498;6.556;2023-08-06T04:49:09;17.10;99.90
8565;DHT22;4320;51.498;6.556;2023-08-06T04:51:35;17.10;99.90
8565;DHT22;4320;51.498;6.556;2023-08-06T04:54:01;17.00;99.90
8565;DHT22;4320;51.498;6.556;2023-08-06T04:56:27;16.80;99.90
8565;DHT22;4320;51.498;6.556;2023-08-06T04:58:52;16.90;99.90
8565;DHT22;4320;51.498;6.556;2023-08-06T05:01:18;16.90;99.90
8565;DHT22;4320;51.498;6.556;2023-08-06T05:03:44;17.10;99.90
8565;DHT22;4320;51.498;6.556;2023-08-06T05:06:09;17.20;99.90
8565;DHT22;4320;51.498;6.556;2023-08-06T05:08:36;17.30;99.90
8565;DHT22;4320;51.498;6.556;2023-08-06T05:11:01;17.30;99.90
8565;DHT22;4320;51.498;6.556;2023-08-06T05:13:27;17.30;99.90
8565;DHT22;4320;51.498;6.556;2023-08-06T05:15:54;17.10;99.90
8565;DHT22;4320;51.498;6.556;2023-08-06T05:18:19;16.90;99.90
8565;DHT22;4320;51.498;6.556;2023-08-06T05:20:45;17.00;99.90
8565;DHT22;4320;51.498;6.556;2023-08-06T05:23:11;17.10;99.90
8565;DHT22;4320;51.498;6.556;2023-08-06T05:25:40;17.10;99.90
8565;DHT22;4320;51.498;6.556;2023-08-06T05:28:06;17.20;99.90
8565;DHT22;4320;51.498;6.556;2023-08-06T05:30:32;17.00;99.90
8565;DHT22;4320;51.498;6.556;2023-08-06T05:32:57;17.00;99.90
8565;DHT22;4320;51.498;6.556;2023-08-06T05:35:23;17.10;99.90
8565;DHT22;4320;51.498;6.556;2023-08-06T05:37:50;17.00;99.90
8565;DHT22;4320;51.498;6.556;2023-08-06T05:40:15;17.00;99.90
8565;DHT22;4320;51.498;6.556;2023-08-06T05:42:41;17.10;99.90
8565;DHT22;4320;51.498;6.556;2023-08-06T05:45:07;17.30;99.90
8565;DHT22;4320;51.498;6.556;2023-08-06T05:47:33;17.30;99.90
8565;DHT22;4320;51.498;6.556;2023-08-06T05:49:59;17.40;99.90
8565;DHT22;4320;51.498;6.556;2023-08-06T05:52:24;17.30;99.90
8565;DHT22;4320;51.498;6.556;2023-08-06T05:54:50;17.20;99.90
8565;DHT22;4320;51.498;6.556;2023-08-06T05:57:16;17.40;99.90
8565;DHT22;4320;51.498;6.556;2023-08-06T05:59:42;17.50;99.90
8565;DHT22;4320;51.498;6.556;2023-08-06T06:02:08;17.50;99.90
8565;DHT22;4320;51.498;6.556;2023-08-06T06:04:34;17.60;99.90
8565;DHT22;4320;51.498;6.556;2023-08-06T06:07:00;17.70;99.90
8565;DHT22;4320;51.498;6.556;2023-08-06T06:09:25;17.70;99.90
8565;DHT22;4320;51.498;6.556;2023-08-06T06:11:51;17.70;99.90
8565;DHT22;4320;51.498;6.556;2023-08-06T06:14:17;17.60;99.90
8565;DHT22;4320;51.498;6.556;2023-08-06T06:16:43;17.70;99.90
8565;DHT22;4320;51.498;6.556;2023-08-06T06:19:09;17.80;99.90
8565;DHT22;4320;51.498;6.556;2023-08-06T06:21:34;18.00;99.90
8565;DHT22;4320;51.498;6.556;2023-08-06T06:24:00;17.70;99.90
8565;DHT22;4320;51.498;6.556;2023-08-06T06:26:25;17.90;99.90
8565;DHT22;4320;51.498;6.556;2023-08-06T06:28:51;18.10;99.90
8565;DHT22;4320;51.498;6.556;2023-08-06T06:31:17;18.20;99.90
8565;DHT22;4320;51.498;6.556;2023-08-06T06:33:42;18.30;99.90
8565;DHT22;4320;51.498;6.556;2023-08-06T06:36:08;18.40;99.90
8565;DHT22;4320;51.498;6.556;2023-08-06T06:38:35;18.40;99.90
8565;DHT22;4320;51.498;6.556;2023-08-06T06:41:00;18.60;99.90
8565;DHT22;4320;51.498;6.556;2023-08-06T06:43:28;18.50;99.90
8565;DHT22;4320;51.498;6.556;2023-08-06T06:45:56;18.40;99.90
8565;DHT22;4320;51.498;6.556;2023-08-06T06:48:23;18.30;99.90
8565;DHT22;4320;51.498;6.556;2023-08-06T06:50:49;18.50;99.90
8565;DHT22;4320;51.498;6.556;2023-08-06T06:53:14;18.70;99.90
8565;DHT22;4320;51.498;6.556;2023-08-06T06:55:40;19.00;99.90
8565;DHT22;4320;51.498;6.556;2023-08-06T06:58:06;18.90;99.90
8565;DHT22;4320;51.498;6.556;2023-08-06T07:00:31;18.60;99.90
8565;DHT22;4320;51.498;6.556;2023-08-06T07:02:57;18.80;99.90
8565;DHT22;4320;51.498;6.556;2023-08-06T07:05:22;18.60;99.90
8565;DHT22;4320;51.498;6.556;2023-08-06T07:07:48;18.80;99.90
8565;DHT22;4320;51.498;6.556;2023-08-06T07:10:13;18.80;99.90
8565;DHT22;4320;51.498;6.556;2023-08-06T07:12:39;18.90;99.90
8565;DHT22;4320;51.498;6.556;2023-08-06T07:15:06;19.10;99.90
8565;DHT22;4320;51.498;6.556;2023-08-06T07:17:32;19.20;99.90
8565;DHT22;4320;51.498;6.556;2023-08-06T07:19:58;19.50;99.90
8565;DHT22;4320;51.498;6.556;2023-08-06T07:22:23;19.80;99.90
8565;DHT22;4320;51.498;6.556;2023-08-06T07:24:49;19.70;99.90
8565;DHT22;4320;51.498;6.556;2023-08-06T07:27:14;19.50;99.90
8565;DHT22;4320;51.498;6.556;2023-08-06T07:29:40;19.30;99.90
8565;DHT22;4320;51.498;6.556;2023-08-06T07:32:07;19.30;99.90
8565;DHT22;4320;51.498;6.556;2023-08-06T07:34:33;19.30;99.90
8565;DHT22;4320;51.498;6.556;2023-08-06T07:36:58;19.10;99.90
8565;DHT22;4320;51.498;6.556;2023-08-06T07:39:25;19.20;99.90
8565;DHT22;4320;51.498;6.556;2023-08-06T07:41:50;19.20;99.90
8565;DHT22;4320;51.498;6.556;2023-08-06T07:44:16;19.30;99.90
8565;DHT22;4320;51.498;6.556;2023-08-06T07:46:41;19.60;99.90
8565;DHT22;4320;51.498;6.556;2023-08-06T07:49:08;19.80;99.90
8565;DHT22;4320;51.498;6.556;2023-08-06T07:51:33;20.30;99.90
8565;DHT22;4320;51.498;6.556;2023-08-06T07:53:59;21.20;99.90
8565;DHT22;4320;51.498;6.556;2023-08-06T07:56:24;21.20;99.90
8565;DHT22;4320;51.498;6.556;2023-08-06T07:58:50;20.90;99.90
8565;DHT22;4320;51.498;6.556;2023-08-06T08:01:16;20.40;99.90
8565;DHT22;4320;51.498;6.556;2023-08-06T08:03:41;20.00;99.90
8565;DHT22;4320;51.498;6.556;2023-08-06T08:06:13;20.00;99.90
8565;DHT22;4320;51.498;6.556;2023-08-06T08:08:39;20.10;99.90
8565;DHT22;4320;51.498;6.556;2023-08-06T08:11:05;20.10;99.90
8565;DHT22;4320;51.498;6.556;2023-08-06T08:13:31;20.00;99.90
8565;DHT22;4320;51.498;6.556;2023-08-06T08:15:57;19.70;99.90
8565;DHT22;4320;51.498;6.556;2023-08-06T08:18:24;19.60;99.90
8565;DHT22;4320;51.498;6.556;2023-08-06T08:20:49;20.00;99.90
8565;DHT22;4320;51.498;6.556;2023-08-06T08:23:15;19.80;99.90
8565;DHT22;4320;51.498;6.556;2023-08-06T08:25:41;19.50;99.90
8565;DHT22;4320;51.498;6.556;2023-08-06T08:28:07;19.40;99.90
8565;DHT22;4320;51.498;6.556;2023-08-06T08:30:33;19.40;99.90
8565;DHT22;4320;51.498;6.556;2023-08-06T08:32:58;19.60;99.90
8565;DHT22;4320;51.498;6.556;2023-08-06T08:35:24;20.00;99.90
8565;DHT22;4320;51.498;6.556;2023-08-06T08:37:50;19.70;99.90
8565;DHT22;4320;51.498;6.556;2023-08-06T08:40:16;19.50;99.90
8565;DHT22;4320;51.498;6.556;2023-08-06T08:42:42;19.40;99.90
8565;DHT22;4320;51.498;6.556;2023-08-06T08:45:12;19.70;99.90
8565;DHT22;4320;51.498;6.556;2023-08-06T08:47:42;19.60;99.90
8565;DHT22;4320;51.498;6.556;2023-08-06T08:50:12;19.70;99.90
8565;DHT22;4320;51.498;6.556;2023-08-06T08:52:39;19.50;99.90
8565;DHT22;4320;51.498;6.556;2023-08-06T08:55:08;19.60;99.90
8565;DHT22;4320;51.498;6.556;2023-08-06T08:57:34;19.70;99.90
8565;DHT22;4320;51.498;6.556;2023-08-06T09:00:00;19.40;99.90
8565;DHT22;4320;51.498;6.556;2023-08-06T09:02:28;19.40;99.90
8565;DHT22;4320;51.498;6.556;2023-08-06T09:04:57;19.70;99.90
8565;DHT22;4320;51.498;6.556;2023-08-06T09:07:26;19.50;99.90
8565;DHT22;4320;51.498;6.556;2023-08-06T09:09:52;19.50;99.90
8565;DHT22;4320;51.498;6.556;2023-08-06T09:12:18;19.30;99.90
8565;DHT22;4320;51.498;6.556;2023-08-06T09:14:44;19.20;99.90
8565;DHT22;4320;51.498;6.556;2023-08-06T09:17:10;19.10;99.90
8565;DHT22;4320;51.498;6.556;2023-08-06T09:19:36;18.90;99.90
8565;DHT22;4320;51.498;6.556;2023-08-06T09:22:02;18.60;99.90
8565;DHT22;4320;51.498;6.556;2023-08-06T09:24:28;18.60;99.90
8565;DHT22;4320;51.498;6.556;2023-08-06T09:26:54;18.90;99.90
8565;DHT22;4320;51.498;6.556;2023-08-06T09:29:20;19.00;99.90
8565;DHT22;4320;51.498;6.556;2023-08-06T09:31:47;19.20;99.90
8565;DHT22;4320;51.498;6.556;2023-08-06T09:36:47;19.30;99.90
8565;DHT22;4320;51.498;6.556;2023-08-06T09:39:14;19.10;99.90
8565;DHT22;4320;51.498;6.556;2023-08-06T09:41:41;18.90;99.90
8565;DHT22;4320;51.498;6.556;2023-08-06T09:44:18;19.00;99.90
8565;DHT22;4320;51.498;6.556;2023-08-06T09:46:48;18.90;99.90
8565;DHT22;4320;51.498;6.556;2023-08-06T09:49:15;18.80;99.90
8565;DHT22;4320;51.498;6.556;2023-08-06T09:51:41;18.80;99.90
8565;DHT22;4320;51.498;6.556;2023-08-06T09:54:08;18.90;99.90
8565;DHT22;4320;51.498;6.556;2023-08-06T09:56:37;19.10;99.90
8565;DHT22;4320;51.498;6.556;2023-08-06T09:59:07;19.20;99.90
8565;DHT22;4320;51.498;6.556;2023-08-06T10:01:34;19.30;99.90
8565;DHT22;4320;51.498;6.556;2023-08-06T10:04:01;19.40;99.90
8565;DHT22;4320;51.498;6.556;2023-08-06T10:06:29;19.60;99.90
8565;DHT22;4320;51.498;6.556;2023-08-06T10:08:54;19.50;99.90
8565;DHT22;4320;51.498;6.556;2023-08-06T10:11:24;19.40;99.90
8565;DHT22;4320;51.498;6.556;2023-08-06T10:14:02;19.30;99.90
8565;DHT22;4320;51.498;6.556;2023-08-06T10:16:30;19.40;99.90
8565;DHT22;4320;51.498;6.556;2023-08-06T10:18:57;19.40;99.90
8565;DHT22;4320;51.498;6.556;2023-08-06T10:21:24;19.30;99.90
8565;DHT22;4320;51.498;6.556;2023-08-06T10:23:54;18.90;99.90
8565;DHT22;4320;51.498;6.556;2023-08-06T10:26:20;18.80;99.90
8565;DHT22;4320;51.498;6.556;2023-08-06T10:28:46;18.70;99.90
8565;DHT22;4320;51.498;6.556;2023-08-06T10:31:11;18.00;99.90
8565;DHT22;4320;51.498;6.556;2023-08-06T10:33:44;17.60;99.90
8565;DHT22;4320;51.498;6.556;2023-08-06T10:36:11;17.40;99.90
8565;DHT22;4320;51.498;6.556;2023-08-06T10:38:50;17.00;99.90
8565;DHT22;4320;51.498;6.556;2023-08-06T10:41:36;16.80;99.90
8565;DHT22;4320;51.498;6.556;2023-08-06T10:44:08;16.70;99.90
8565;DHT22;4320;51.498;6.556;2023-08-06T10:46:34;16.70;99.90
8565;DHT22;4320;51.498;6.556;2023-08-06T10:49:00;16.60;99.90
8565;DHT22;4320;51.498;6.556;2023-08-06T10:51:26;16.60;99.90
8565;DHT22;4320;51.498;6.556;2023-08-06T10:53:53;16.50;99.90
8565;DHT22;4320;51.498;6.556;2023-08-06T10:56:23;16.20;1.00
8565;DHT22;4320;51.498;6.556;2023-08-06T10:58:50;16.10;1.00
8565;DHT22;4320;51.498;6.556;2023-08-06T11:01:16;16.20;1.00
8565;DHT22;4320;51.498;6.556;2023-08-06T11:03:43;16.30;1.00
8565;DHT22;4320;51.498;6.556;2023-08-06T11:06:10;16.20;1.00
8565;DHT22;4320;51.498;6.556;2023-08-06T11:08:40;16.20;1.00
8565;DHT22;4320;51.498;6.556;2023-08-06T11:11:16;16.20;1.00
8565;DHT22;4320;51.498;6.556;2023-08-06T11:13:49;16.30;1.00
8565;DHT22;4320;51.498;6.556;2023-08-06T11:16:15;16.30;1.00
8565;DHT22;4320;51.498;6.556;2023-08-06T11:18:42;16.30;1.00
8565;DHT22;4320;51.498;6.556;2023-08-06T11:21:08;16.40;1.00
8565;DHT22;4320;51.498;6.556;2023-08-06T11:23:34;16.60;99.90
8565;DHT22;4320;51.498;6.556;2023-08-06T11:26:00;16.40;99.90
8565;DHT22;4320;51.498;6.556;2023-08-06T11:28:26;16.20;1.00
8565;DHT22;4320;51.498;6.556;2023-08-06T11:30:52;16.30;1.00
8565;DHT22;4320;51.498;6.556;2023-08-06T11:33:25;16.40;99.90
8565;DHT22;4320;51.498;6.556;2023-08-06T11:35:51;16.50;1.00
8565;DHT22;4320;51.498;6.556;2023-08-06T11:38:17;16.40;99.90
8565;DHT22;4320;51.498;6.556;2023-08-06T11:40:47;16.20;1.00
8565;DHT22;4320;51.498;6.556;2023-08-06T11:43:14;16.00;1.00
8565;DHT22;4320;51.498;6.556;2023-08-06T11:45:40;16.00;1.00
8565;DHT22;4320;51.498;6.556;2023-08-06T11:48:07;16.00;1.00
8565;DHT22;4320;51.498;6.556;2023-08-06T11:50:36;16.00;1.00
8565;DHT22;4320;51.498;6.556;2023-08-06T11:53:03;16.30;1.00
8565;DHT22;4320;51.498;6.556;2023-08-06T11:55:29;16.00;1.00
8565;DHT22;4320;51.498;6.556;2023-08-06T11:57:56;16.10;1.00
8565;DHT22;4320;51.498;6.556;2023-08-06T12:00:24;16.00;1.00
8565;DHT22;4320;51.498;6.556;2023-08-06T12:02:50;16.00;1.00
8565;DHT22;4320;51.498;6.556;2023-08-06T12:05:31;16.20;1.00
8565;DHT22;4320;51.498;6.556;2023-08-06T12:08:00;16.20;1.00
8565;DHT22;4320;51.498;6.556;2023-08-06T12:10:27;16.20;1.00
8565;DHT22;4320;51.498;6.556;2023-08-06T12:12:53;16.20;1.00
8565;DHT22;4320;51.498;6.556;2023-08-06T12:15:20;16.20;1.00
8565;DHT22;4320;51.498;6.556;2023-08-06T12:17:45;16.10;1.00
8565;DHT22;4320;51.498;6.556;2023-08-06T12:20:11;16.20;1.00
8565;DHT22;4320;51.498;6.556;2023-08-06T12:22:37;16.20;1.00
8565;DHT22;4320;51.498;6.556;2023-08-06T12:25:09;16.20;1.00
8565;DHT22;4320;51.498;6.556;2023-08-06T12:27:38;16.20;1.00
8565;DHT22;4320;51.498;6.556;2023-08-06T12:30:05;16.20;1.00
8565;DHT22;4320;51.498;6.556;2023-08-06T12:32:31;16.20;1.00
8565;DHT22;4320;51.498;6.556;2023-08-06T12:34:57;16.20;1.00
8565;DHT22;4320;51.498;6.556;2023-08-06T12:37:24;16.20;1.00
8565;DHT22;4320;51.498;6.556;2023-08-06T12:39:50;16.40;1.00
8565;DHT22;4320;51.498;6.556;2023-08-06T12:42:16;16.40;1.00
8565;DHT22;4320;51.498;6.556;2023-08-06T12:44:42;16.20;1.00
8565;DHT22;4320;51.498;6.556;2023-08-06T12:47:07;16.30;1.00
8565;DHT22;4320;51.498;6.556;2023-08-06T12:49:33;16.10;1.00
8565;DHT22;4320;51.498;6.556;2023-08-06T12:51:59;16.10;1.00
8565;DHT22;4320;51.498;6.556;2023-08-06T12:54:28;16.00;1.00
8565;DHT22;4320;51.498;6.556;2023-08-06T12:56:54;16.10;1.00
8565;DHT22;4320;51.498;6.556;2023-08-06T12:59:20;16.00;1.00
8565;DHT22;4320;51.498;6.556;2023-08-06T13:01:46;16.10;1.00
8565;DHT22;4320;51.498;6.556;2023-08-06T13:04:12;16.10;1.00
8565;DHT22;4320;51.498;6.556;2023-08-06T13:06:37;16.30;1.00
8565;DHT22;4320;51.498;6.556;2023-08-06T13:09:05;16.10;1.00
8565;DHT22;4320;51.498;6.556;2023-08-06T13:11:32;16.10;1.00
8565;DHT22;4320;51.498;6.556;2023-08-06T13:14:09;16.20;1.00
8565;DHT22;4320;51.498;6.556;2023-08-06T13:16:36;16.20;1.00
8565;DHT22;4320;51.498;6.556;2023-08-06T13:19:02;16.60;1.00
8565;DHT22;4320;51.498;6.556;2023-08-06T13:21:35;16.40;1.00
8565;DHT22;4320;51.498;6.556;2023-08-06T13:24:02;16.10;99.90
8565;DHT22;4320;51.498;6.556;2023-08-06T13:26:31;16.20;1.00
8565;DHT22;4320;51.498;6.556;2023-08-06T13:28:57;16.20;99.90
8565;DHT22;4320;51.498;6.556;2023-08-06T13:31:23;16.20;1.00
8565;DHT22;4320;51.498;6.556;2023-08-06T13:33:49;16.10;1.00
8565;DHT22;4320;51.498;6.556;2023-08-06T13:36:16;16.10;1.00
8565;DHT22;4320;51.498;6.556;2023-08-06T13:38:42;16.10;1.00
8565;DHT22;4320;51.498;6.556;2023-08-06T13:41:07;16.00;1.00
8565;DHT22;4320;51.498;6.556;2023-08-06T13:43:33;16.00;1.00
8565;DHT22;4320;51.498;6.556;2023-08-06T13:45:59;16.00;1.00
8565;DHT22;4320;51.498;6.556;2023-08-06T13:48:24;16.10;1.00
8565;DHT22;4320;51.498;6.556;2023-08-06T13:50:50;16.00;1.00
8565;DHT22;4320;51.498;6.556;2023-08-06T13:53:16;16.10;1.00
8565;DHT22;4320;51.498;6.556;2023-08-06T13:55:41;16.10;1.00
8565;DHT22;4320;51.498;6.556;2023-08-06T13:58:07;15.80;1.00
8565;DHT22;4320;51.498;6.556;2023-08-06T14:00:35;15.90;1.00
8565;DHT22;4320;51.498;6.556;2023-08-06T14:03:00;15.90;1.00
8565;DHT22;4320;51.498;6.556;2023-08-06T14:05:26;16.00;1.00
8565;DHT22;4320;51.498;6.556;2023-08-06T14:07:52;16.00;1.00
8565;DHT22;4320;51.498;6.556;2023-08-06T14:10:17;16.20;1.00
8565;DHT22;4320;51.498;6.556;2023-08-06T14:12:43;16.20;99.90
8565;DHT22;4320;51.498;6.556;2023-08-06T14:15:09;16.10;1.00
8565;DHT22;4320;51.498;6.556;2023-08-06T14:17:34;16.00;1.00
8565;DHT22;4320;51.498;6.556;2023-08-06T14:20:00;16.00;1.00
8565;DHT22;4320;51.498;6.556;2023-08-06T14:22:26;16.10;1.00
8565;DHT22;4320;51.498;6.556;2023-08-06T14:24:51;16.30;1.00
8565;DHT22;4320;51.498;6.556;2023-08-06T14:27:17;16.20;1.00
8565;DHT22;4320;51.498;6.556;2023-08-06T14:29:43;16.20;1.00
8565;DHT22;4320;51.498;6.556;2023-08-06T14:32:09;16.20;1.00
8565;DHT22;4320;51.498;6.556;2023-08-06T14:34:34;16.20;1.00
8565;DHT22;4320;51.498;6.556;2023-08-06T14:37:00;16.20;1.00
8565;DHT22;4320;51.498;6.556;2023-08-06T14:39:26;16.30;1.00
8565;DHT22;4320;51.498;6.556;2023-08-06T14:41:51;16.60;1.00
8565;DHT22;4320;51.498;6.556;2023-08-06T14:44:17;16.50;1.00
8565;DHT22;4320;51.498;6.556;2023-08-06T14:46:42;16.70;1.00
8565;DHT22;4320;51.498;6.556;2023-08-06T14:49:08;16.40;1.00
8565;DHT22;4320;51.498;6.556;2023-08-06T14:51:34;16.20;1.00
8565;DHT22;4320;51.498;6.556;2023-08-06T14:53:59;16.40;1.00
8565;DHT22;4320;51.498;6.556;2023-08-06T14:56:25;16.30;1.00
8565;DHT22;4320;51.498;6.556;2023-08-06T14:58:50;16.50;1.00
8565;DHT22;4320;51.498;6.556;2023-08-06T15:01:16;16.70;1.00
8565;DHT22;4320;51.498;6.556;2023-08-06T15:03:42;16.80;1.00
8565;DHT22;4320;51.498;6.556;2023-08-06T15:06:07;16.70;99.90
8565;DHT22;4320;51.498;6.556;2023-08-06T15:08:33;16.70;99.90
8565;DHT22;4320;51.498;6.556;2023-08-06T15:10:58;16.50;99.90
8565;DHT22;4320;51.498;6.556;2023-08-06T15:13:28;16.60;99.90
8565;DHT22;4320;51.498;6.556;2023-08-06T15:15:54;16.60;99.90
8565;DHT22;4320;51.498;6.556;2023-08-06T15:18:20;16.40;99.90
8565;DHT22;4320;51.498;6.556;2023-08-06T15:20:45;16.30;99.90
8565;DHT22;4320;51.498;6.556;2023-08-06T15:23:11;16.40;99.90
8565;DHT22;4320;51.498;6.556;2023-08-06T15:25:37;16.50;99.90
8565;DHT22;4320;51.498;6.556;2023-08-06T15:28:02;16.50;99.90
8565;DHT22;4320;51.498;6.556;2023-08-06T15:30:28;16.50;99.90
8565;DHT22;4320;51.498;6.556;2023-08-06T15:32:54;16.70;99.90
8565;DHT22;4320;51.498;6.556;2023-08-06T15:35:19;16.60;99.90
8565;DHT22;4320;51.498;6.556;2023-08-06T15:37:45;16.50;99.90
8565;DHT22;4320;51.498;6.556;2023-08-06T15:40:11;16.80;99.90
8565;DHT22;4320;51.498;6.556;2023-08-06T15:42:36;16.80;99.90
8565;DHT22;4320;51.498;6.556;2023-08-06T15:45:02;16.70;99.90
8565;DHT22;4320;51.498;6.556;2023-08-06T15:47:29;16.70;99.90
8565;DHT22;4320;51.498;6.556;2023-08-06T15:49:54;16.50;99.90
8565;DHT22;4320;51.498;6.556;2023-08-06T15:52:20;16.70;99.90
8565;DHT22;4320;51.498;6.556;2023-08-06T15:54:46;16.70;99.90
8565;DHT22;4320;51.498;6.556;2023-08-06T15:57:11;16.50;99.90
8565;DHT22;4320;51.498;6.556;2023-08-06T15:59:37;16.60;99.90
8565;DHT22;4320;51.498;6.556;2023-08-06T16:02:03;16.70;99.90
8565;DHT22;4320;51.498;6.556;2023-08-06T16:04:29;16.80;99.90
8565;DHT22;4320;51.498;6.556;2023-08-06T16:06:56;16.90;99.90
8565;DHT22;4320;51.498;6.556;2023-08-06T16:09:22;16.80;99.90
8565;DHT22;4320;51.498;6.556;2023-08-06T16:11:53;16.50;99.90